Time;durP1;ratioP1;P1;durP2;ratioP2;P2;SDS_P1;SDS_P2;PMS_P1;PMS_P2;Temp;Humidity;BMP_temperature;BMP_pressure;BME280_temperature;BME280_humidity;BME280_pressure;Samples;Min_cycle;Max_cycle;Signal;HPM_P1;HPM_P2
2023/08/20 00:01:14;;;;;;;13.57;5.83;;;;;;;;;;5010405;28;20488;-85
2023/08/20 00:03:46;;;;;;;11.63;6.20;;;;;;;;;;5009620;28;20893;-84
2023/08/20 00:06:14;;;;;;;13.33;5.60;;;;;;;;;;5010384;28;20751;-83
2023/08/20 00:08:42;;;;;;;11.63;5.47;;;;;;;;;;5010074;28;20594;-83
2023/08/20 00:11:13;;;;;;;9.93;5.27;;;;;;;;;;5009575;28;20500;-81
2023/08/20 00:13:48;;;;;;;12.80;5.23;;;;;;;;;;5009877;28;20468;-84
2023/08/20 00:16:16;;;;;;;14.77;6.87;;;;;;;;;;5013342;28;20494;-85
2023/08/20 00:18:44;;;;;;;12.07;5.23;;;;;;;;;;5015144;28;20808;-84
2023/08/20 00:21:12;;;;;;;12.30;6.50;;;;;;;;;;5014815;28;20740;-84
2023/08/20 00:23:40;;;;;;;9.30;5.43;;;;;;;;;;5011134;28;20764;-84
2023/08/20 00:26:08;;;;;;;13.20;5.37;;;;;;;;;;5010159;28;20487;-86
2023/08/20 00:28:38;;;;;;;12.03;5.63;;;;;;;;;;5010885;28;20781;-82
2023/08/20 00:31:06;;;;;;;7.60;4.80;;;;;;;;;;5010402;28;20475;-82
2023/08/20 00:33:34;;;;;;;13.77;5.87;;;;;;;;;;5009998;28;20456;-83
2023/08/20 00:36:01;;;;;;;9.30;5.33;;;;;;;;;;5009002;28;20448;-82
2023/08/20 00:38:29;;;;;;;14.63;5.73;;;;;;;;;;5009436;28;20440;-83
2023/08/20 00:40:56;;;;;;;10.47;6.07;;;;;;;;;;5009523;28;20474;-83
2023/08/20 00:43:24;;;;;;;11.83;5.30;;;;;;;;;;5009408;28;20456;-82
2023/08/20 00:45:54;;;;;;;9.50;5.13;;;;;;;;;;5010482;28;20546;-85
2023/08/20 00:48:21;;;;;;;15.27;6.60;;;;;;;;;;5009794;28;20452;-82
2023/08/20 00:50:50;;;;;;;17.57;5.90;;;;;;;;;;5009870;28;20479;-84
2023/08/20 00:53:17;;;;;;;8.27;5.13;;;;;;;;;;5008894;28;20480;-86
2023/08/20 00:55:45;;;;;;;10.67;5.83;;;;;;;;;;5009003;28;20768;-85
2023/08/20 00:58:14;;;;;;;8.27;6.00;;;;;;;;;;5010082;28;20506;-84
2023/08/20 01:00:42;;;;;;;13.47;6.47;;;;;;;;;;5009620;28;20811;-86
2023/08/20 01:03:12;;;;;;;10.60;5.97;;;;;;;;;;5009631;28;20471;-85
2023/08/20 01:05:43;;;;;;;9.50;5.80;;;;;;;;;;5010129;28;20452;-84
2023/08/20 01:08:18;;;;;;;10.70;5.50;;;;;;;;;;5012595;28;20448;-83
2023/08/20 01:10:51;;;;;;;12.60;6.13;;;;;;;;;;5010293;28;20464;-84
2023/08/20 01:13:19;;;;;;;14.60;6.77;;;;;;;;;;5011310;28;20528;-88
2023/08/20 01:15:46;;;;;;;12.47;6.97;;;;;;;;;;5010769;28;20452;-82
2023/08/20 01:18:16;;;;;;;11.87;7.00;;;;;;;;;;5010885;28;20452;-81
2023/08/20 01:20:47;;;;;;;15.57;6.60;;;;;;;;;;5010998;28;20946;-84
2023/08/20 01:23:37;;;;;;;10.90;6.10;;;;;;;;;;5010572;28;20496;-81
2023/08/20 01:26:19;;;;;;;11.77;6.23;;;;;;;;;;5014505;28;20467;-81
2023/08/20 01:28:48;;;;;;;12.70;6.93;;;;;;;;;;5011670;28;20460;-86
2023/08/20 01:31:17;;;;;;;12.17;7.40;;;;;;;;;;5009397;28;20476;-82
2023/08/20 01:33:48;;;;;;;10.73;6.07;;;;;;;;;;5009474;28;20503;-83
2023/08/20 01:36:16;;;;;;;10.60;6.33;;;;;;;;;;5009792;28;20483;-84
2023/08/20 01:38:43;;;;;;;11.13;6.43;;;;;;;;;;5009920;28;20463;-82
2023/08/20 01:41:11;;;;;;;12.57;7.03;;;;;;;;;;5008005;28;20470;-83
2023/08/20 01:43:39;;;;;;;15.43;6.37;;;;;;;;;;5008786;28;20452;-85
2023/08/20 01:46:10;;;;;;;11.93;7.00;;;;;;;;;;5008275;28;20453;-83
2023/08/20 01:48:37;;;;;;;13.80;7.50;;;;;;;;;;5007114;28;20852;-84
2023/08/20 01:51:05;;;;;;;16.37;6.67;;;;;;;;;;5006451;28;20789;-83
2023/08/20 01:53:33;;;;;;;16.40;7.00;;;;;;;;;;5007135;28;20526;-84
2023/08/20 01:56:00;;;;;;;23.67;6.93;;;;;;;;;;5007820;28;20522;-85
2023/08/20 01:58:28;;;;;;;16.03;7.90;;;;;;;;;;5008580;28;20462;-85
2023/08/20 02:00:56;;;;;;;11.40;6.30;;;;;;;;;;5009491;28;20542;-86
2023/08/20 02:03:25;;;;;;;14.87;7.00;;;;;;;;;;5007961;28;20476;-84
2023/08/20 02:05:52;;;;;;;12.57;6.80;;;;;;;;;;5008987;28;20460;-84
2023/08/20 02:08:20;;;;;;;14.30;7.30;;;;;;;;;;5007853;28;20460;-85
2023/08/20 02:10:47;;;;;;;15.03;7.50;;;;;;;;;;5008361;28;20474;-85
2023/08/20 02:13:15;;;;;;;18.60;8.80;;;;;;;;;;5007387;28;20535;-84
2023/08/20 02:15:43;;;;;;;14.93;6.93;;;;;;;;;;5009156;28;20436;-84
2023/08/20 02:18:10;;;;;;;11.17;6.00;;;;;;;;;;5008314;28;20475;-85
2023/08/20 02:20:39;;;;;;;18.53;6.80;;;;;;;;;;5007906;28;20498;-84
2023/08/20 02:23:07;;;;;;;12.70;6.63;;;;;;;;;;5007982;28;20566;-84
2023/08/20 02:25:36;;;;;;;13.10;6.40;;;;;;;;;;5008572;28;20452;-84
2023/08/20 02:28:04;;;;;;;10.27;5.80;;;;;;;;;;5007955;28;20493;-85
2023/08/20 02:30:31;;;;;;;16.13;6.50;;;;;;;;;;5008394;28;20471;-82
2023/08/20 02:32:59;;;;;;;13.73;7.00;;;;;;;;;;5007438;28;20436;-82
2023/08/20 02:35:27;;;;;;;12.67;6.33;;;;;;;;;;5007782;28;20499;-82
2023/08/20 02:37:56;;;;;;;11.60;7.10;;;;;;;;;;5007240;28;20456;-84
2023/08/20 02:40:23;;;;;;;12.03;6.00;;;;;;;;;;5006507;28;20475;-85
2023/08/20 02:42:51;;;;;;;9.27;5.80;;;;;;;;;;5006694;28;20498;-84
2023/08/20 02:45:18;;;;;;;11.20;5.57;;;;;;;;;;5007998;28;20822;-83
2023/08/20 02:47:46;;;;;;;11.07;5.77;;;;;;;;;;5008560;28;20487;-84
2023/08/20 02:50:16;;;;;;;10.80;5.53;;;;;;;;;;5009462;28;20460;-84
2023/08/20 02:52:44;;;;;;;16.40;6.63;;;;;;;;;;5009475;28;20460;-84
2023/08/20 02:55:13;;;;;;;13.30;7.23;;;;;;;;;;5008424;28;20927;-83
2023/08/20 02:57:40;;;;;;;11.03;5.73;;;;;;;;;;5010267;28;20459;-82
2023/08/20 03:00:11;;;;;;;18.10;6.10;;;;;;;;;;5014986;28;20455;-83
2023/08/20 03:02:39;;;;;;;10.93;6.10;;;;;;;;;;5014211;28;20495;-82
2023/08/20 03:05:07;;;;;;;8.83;5.53;;;;;;;;;;5014359;28;20464;-84
2023/08/20 03:07:35;;;;;;;11.30;5.60;;;;;;;;;;5012741;28;20792;-83
2023/08/20 03:10:06;;;;;;;13.10;6.50;;;;;;;;;;5014620;28;20456;-84
2023/08/20 03:12:35;;;;;;;9.20;6.17;;;;;;;;;;5020953;28;20494;-79
2023/08/20 03:15:03;;;;;;;14.50;6.70;;;;;;;;;;5019436;28;20432;-83
2023/08/20 03:17:31;;;;;;;15.07;6.00;;;;;;;;;;5020221;28;20487;-84
2023/08/20 03:20:00;;;;;;;9.13;5.37;;;;;;;;;;5019725;28;20440;-83
2023/08/20 03:22:28;;;;;;;14.17;6.00;;;;;;;;;;5018245;28;20494;-85
2023/08/20 03:24:56;;;;;;;12.67;6.10;;;;;;;;;;5019052;28;20447;-84
2023/08/20 03:27:26;;;;;;;11.23;6.10;;;;;;;;;;5017020;28;20455;-81
2023/08/20 03:29:55;;;;;;;12.90;6.03;;;;;;;;;;5016552;28;20455;-84
2023/08/20 03:32:23;;;;;;;11.37;6.30;;;;;;;;;;5014907;28;20463;-84
2023/08/20 03:34:50;;;;;;;13.40;6.07;;;;;;;;;;5011901;28;20447;-85
2023/08/20 03:37:18;;;;;;;9.40;5.63;;;;;;;;;;5012256;28;20448;-84
2023/08/20 03:39:45;;;;;;;10.03;5.83;;;;;;;;;;5010831;28;20456;-83
2023/08/20 03:42:13;;;;;;;14.20;6.60;;;;;;;;;;5009798;28;20954;-85
2023/08/20 03:44:41;;;;;;;11.30;5.93;;;;;;;;;;5010488;28;20759;-84
2023/08/20 03:47:10;;;;;;;13.20;6.53;;;;;;;;;;5010790;28;20456;-85
2023/08/20 03:49:38;;;;;;;15.87;6.07;;;;;;;;;;5009173;28;20487;-83
2023/08/20 03:52:06;;;;;;;8.80;5.93;;;;;;;;;;5009222;28;20451;-85
2023/08/20 03:54:34;;;;;;;12.50;7.07;;;;;;;;;;5010094;28;20808;-83
2023/08/20 03:57:02;;;;;;;11.37;5.80;;;;;;;;;;5010262;28;20746;-81
2023/08/20 03:59:30;;;;;;;10.67;5.90;;;;;;;;;;5010896;28;20479;-82
2023/08/20 04:01:58;;;;;;;12.03;6.60;;;;;;;;;;5009890;28;20465;-84
2023/08/20 04:04:27;;;;;;;14.40;6.97;;;;;;;;;;5009625;28;20444;-84
2023/08/20 04:06:55;;;;;;;12.27;7.83;;;;;;;;;;5012276;28;20483;-81
2023/08/20 04:09:23;;;;;;;13.33;7.50;;;;;;;;;;5009296;28;20444;-83
2023/08/20 04:11:51;;;;;;;10.50;6.80;;;;;;;;;;5010744;28;20467;-83
2023/08/20 04:14:18;;;;;;;11.63;6.73;;;;;;;;;;5009945;28;20456;-83
2023/08/20 04:16:46;;;;;;;12.13;6.70;;;;;;;;;;5009188;28;20538;-83
2023/08/20 04:19:14;;;;;;;15.03;7.67;;;;;;;;;;5007910;28;20464;-83
2023/08/20 04:21:43;;;;;;;12.13;7.00;;;;;;;;;;5007196;28;20566;-84
2023/08/20 04:24:11;;;;;;;10.20;6.73;;;;;;;;;;5007783;28;20476;-82
2023/08/20 04:26:39;;;;;;;11.30;6.67;;;;;;;;;;5007757;28;20464;-83
2023/08/20 04:29:07;;;;;;;11.63;7.13;;;;;;;;;;5009475;28;20440;-81
2023/08/20 04:31:34;;;;;;;10.87;6.80;;;;;;;;;;5009998;28;20449;-82
2023/08/20 04:34:02;;;;;;;12.80;8.03;;;;;;;;;;5011692;28;20540;-84
2023/08/20 04:36:30;;;;;;;11.20;7.00;;;;;;;;;;5009179;28;20456;-84
2023/08/20 04:38:59;;;;;;;14.73;6.47;;;;;;;;;;5009684;28;20487;-83
2023/08/20 04:41:26;;;;;;;14.63;7.33;;;;;;;;;;5009104;28;20551;-80
2023/08/20 04:43:57;;;;;;;12.53;8.17;;;;;;;;;;5007695;28;20506;-82
2023/08/20 04:46:25;;;;;;;9.83;7.07;;;;;;;;;;5007591;28;20460;-84
2023/08/20 04:48:52;;;;;;;13.67;7.93;;;;;;;;;;5007953;28;20455;-82
2023/08/20 04:51:21;;;;;;;12.67;8.40;;;;;;;;;;5009618;28;20452;-82
2023/08/20 04:53:48;;;;;;;17.70;8.03;;;;;;;;;;5008723;28;20484;-83
2023/08/20 04:56:18;;;;;;;12.03;8.27;;;;;;;;;;5006572;28;20914;-82
2023/08/20 04:58:46;;;;;;;16.27;8.33;;;;;;;;;;5006514;28;20464;-82
2023/08/20 05:01:14;;;;;;;12.17;9.00;;;;;;;;;;5007736;28;20847;-84
2023/08/20 05:03:50;;;;;;;13.60;7.77;;;;;;;;;;5008693;28;20794;-85
2023/08/20 05:06:22;;;;;;;17.70;9.30;;;;;;;;;;5008940;28;20657;-85
2023/08/20 05:08:50;;;;;;;20.20;9.90;;;;;;;;;;5006010;28;20492;-82
2023/08/20 05:11:19;;;;;;;13.00;9.07;;;;;;;;;;5006040;28;20837;-83
2023/08/20 05:13:51;;;;;;;16.73;8.50;;;;;;;;;;5007107;28;20444;-84
2023/08/20 05:16:19;;;;;;;12.23;8.60;;;;;;;;;;5008123;28;20457;-83
2023/08/20 05:18:47;;;;;;;10.57;8.23;;;;;;;;;;5009877;28;20452;-83
2023/08/20 05:21:14;;;;;;;15.43;9.50;;;;;;;;;;5009770;28;20479;-83
2023/08/20 05:23:47;;;;;;;14.37;10.10;;;;;;;;;;5008965;28;20794;-84
2023/08/20 05:26:15;;;;;;;12.17;8.53;;;;;;;;;;5008296;28;20460;-84
2023/08/20 05:28:52;;;;;;;14.27;9.00;;;;;;;;;;5006561;28;20488;-84
2023/08/20 05:31:19;;;;;;;17.03;8.80;;;;;;;;;;5006828;28;20855;-81
2023/08/20 05:33:47;;;;;;;12.90;7.60;;;;;;;;;;5005637;28;20563;-82
2023/08/20 05:36:17;;;;;;;13.47;8.07;;;;;;;;;;5005730;28;20488;-85
2023/08/20 05:38:45;;;;;;;17.30;8.57;;;;;;;;;;5005807;28;20519;-82
2023/08/20 05:41:13;;;;;;;12.90;8.60;;;;;;;;;;5005272;28;20436;-84
2023/08/20 05:43:41;;;;;;;13.10;8.57;;;;;;;;;;5005303;28;20475;-83
2023/08/20 05:46:10;;;;;;;20.47;10.17;;;;;;;;;;5006887;28;20432;-80
2023/08/20 05:48:37;;;;;;;15.80;8.80;;;;;;;;;;5008350;28;20440;-83
2023/08/20 05:51:05;;;;;;;14.00;8.47;;;;;;;;;;5007706;28;20432;-84
2023/08/20 05:53:33;;;;;;;16.37;8.90;;;;;;;;;;5007339;28;20642;-85
2023/08/20 05:56:01;;;;;;;19.73;9.50;;;;;;;;;;5008884;28;20455;-85
2023/08/20 05:58:29;;;;;;;16.87;9.60;;;;;;;;;;5014990;28;20455;-81
2023/08/20 06:00:56;;;;;;;15.37;9.30;;;;;;;;;;5015275;28;20488;-81
2023/08/20 06:03:34;;;;;;;18.27;10.27;;;;;;;;;;5007960;28;20492;-83
2023/08/20 06:06:02;;;;;;;12.67;8.17;;;;;;;;;;5008854;28;20432;-83
2023/08/20 06:08:30;;;;;;;19.43;9.03;;;;;;;;;;5008979;28;20448;-84
2023/08/20 06:10:57;;;;;;;14.60;8.30;;;;;;;;;;5008378;28;20440;-83
2023/08/20 06:13:25;;;;;;;13.07;9.40;;;;;;;;;;5007211;28;20464;-81
2023/08/20 06:15:53;;;;;;;11.83;7.43;;;;;;;;;;5006555;28;20478;-83
2023/08/20 06:18:20;;;;;;;11.60;7.53;;;;;;;;;;4994663;28;20480;-85
2023/08/20 06:20:49;;;;;;;13.27;8.13;;;;;;;;;;4987234;28;20520;-85
2023/08/20 06:23:17;;;;;;;11.93;7.60;;;;;;;;;;4985859;28;20584;-84
2023/08/20 06:25:52;;;;;;;18.00;8.07;;;;;;;;;;4990266;28;20562;-85
2023/08/20 06:28:19;;;;;;;14.77;7.30;;;;;;;;;;4991999;28;20540;-85
2023/08/20 06:30:47;;;;;;;13.47;7.77;;;;;;;;;;4983523;28;20476;-85
2023/08/20 06:33:14;;;;;;;8.70;5.83;;;;;;;;;;4981479;28;20484;-82
2023/08/20 06:35:42;;;;;;;11.60;7.73;;;;;;;;;;4983147;28;20457;-84
2023/08/20 06:38:11;;;;;;;14.03;6.50;;;;;;;;;;4982801;28;20527;-83
2023/08/20 06:40:39;;;;;;;9.77;6.13;;;;;;;;;;4982866;28;20457;-84
2023/08/20 06:43:06;;;;;;;8.70;5.73;;;;;;;;;;4982132;28;20523;-84
2023/08/20 06:45:34;;;;;;;10.40;5.70;;;;;;;;;;4983570;28;20449;-85
2023/08/20 06:48:01;;;;;;;11.07;6.70;;;;;;;;;;4983714;28;20716;-85
2023/08/20 06:50:29;;;;;;;10.50;6.23;;;;;;;;;;4981384;28;20500;-85
2023/08/20 06:52:57;;;;;;;15.70;5.60;;;;;;;;;;4982301;28;20504;-84
2023/08/20 06:55:26;;;;;;;8.73;5.30;;;;;;;;;;4983653;28;20899;-82
2023/08/20 06:57:54;;;;;;;9.30;5.00;;;;;;;;;;4986586;28;20472;-84
2023/08/20 07:00:22;;;;;;;9.50;4.87;;;;;;;;;;4985160;28;20852;-83
2023/08/20 07:02:49;;;;;;;8.23;4.10;;;;;;;;;;4984351;28;20463;-85
2023/08/20 07:05:18;;;;;;;11.80;5.60;;;;;;;;;;4985473;28;20560;-84
2023/08/20 07:07:45;;;;;;;14.20;5.63;;;;;;;;;;4984576;28;20445;-85
2023/08/20 07:10:14;;;;;;;7.60;3.93;;;;;;;;;;4984889;28;20804;-83
2023/08/20 07:12:43;;;;;;;7.63;4.00;;;;;;;;;;4984547;28;20467;-83
2023/08/20 07:15:11;;;;;;;5.73;3.23;;;;;;;;;;4984823;28;20627;-82
2023/08/20 07:17:42;;;;;;;12.57;3.97;;;;;;;;;;4985432;28;20488;-81
2023/08/20 07:20:11;;;;;;;8.60;4.10;;;;;;;;;;4984193;28;20453;-82
2023/08/20 07:22:38;;;;;;;10.33;4.00;;;;;;;;;;4997679;28;20472;-81
2023/08/20 07:25:17;;;;;;;7.00;4.10;;;;;;;;;;5005107;28;20484;-83
2023/08/20 07:27:47;;;;;;;9.97;4.03;;;;;;;;;;5005690;28;20470;-83
2023/08/20 07:30:17;;;;;;;12.10;4.13;;;;;;;;;;5010044;28;20456;-79
2023/08/20 07:32:45;;;;;;;7.90;4.17;;;;;;;;;;5004919;28;20459;-79
2023/08/20 07:35:13;;;;;;;7.37;4.17;;;;;;;;;;5004166;28;20468;-80
2023/08/20 07:37:41;;;;;;;5.57;3.23;;;;;;;;;;5007585;28;20515;-84
2023/08/20 07:40:10;;;;;;;5.90;2.87;;;;;;;;;;5007767;28;20531;-81
2023/08/20 07:42:38;;;;;;;5.77;2.87;;;;;;;;;;5005423;28;20440;-80
2023/08/20 07:45:08;;;;;;;5.97;2.77;;;;;;;;;;5004439;28;20501;-80
2023/08/20 07:47:36;;;;;;;7.00;3.40;;;;;;;;;;5008426;28;20462;-82
2023/08/20 07:50:08;;;;;;;5.33;3.30;;;;;;;;;;5006678;28;20518;-83
2023/08/20 07:52:36;;;;;;;5.53;3.07;;;;;;;;;;5004773;28;20546;-80
2023/08/20 07:55:04;;;;;;;9.70;3.27;;;;;;;;;;4996934;28;20444;-80
2023/08/20 07:57:32;;;;;;;5.00;2.30;;;;;;;;;;5007258;28;20463;-81
2023/08/20 07:59:59;;;;;;;3.90;2.30;;;;;;;;;;5005987;28;20460;-80
2023/08/20 08:02:40;;;;;;;6.40;2.90;;;;;;;;;;5005527;28;20468;-81
2023/08/20 08:05:14;;;;;;;6.80;2.90;;;;;;;;;;5006371;28;20579;-81
2023/08/20 08:07:45;;;;;;;5.73;2.03;;;;;;;;;;5007164;28;20462;-83
2023/08/20 08:10:14;;;;;;;4.53;1.43;;;;;;;;;;5007688;28;20498;-82
2023/08/20 08:12:41;;;;;;;6.70;1.70;;;;;;;;;;5006732;28;20823;-83
2023/08/20 08:15:09;;;;;;;5.63;2.17;;;;;;;;;;5001435;28;20482;-86
2023/08/20 08:17:38;;;;;;;5.33;2.00;;;;;;;;;;5004525;28;20472;-83
2023/08/20 08:20:07;;;;;;;6.03;2.10;;;;;;;;;;5003519;28;20570;-84
2023/08/20 08:22:35;;;;;;;3.70;1.97;;;;;;;;;;5007440;28;20436;-85
2023/08/20 08:25:03;;;;;;;4.37;1.90;;;;;;;;;;5003784;28;21052;-82
2023/08/20 08:27:31;;;;;;;3.80;1.30;;;;;;;;;;5003030;28;20890;-80
2023/08/20 08:29:59;;;;;;;3.93;1.43;;;;;;;;;;5001788;28;20516;-84
2023/08/20 08:32:42;;;;;;;2.90;1.60;;;;;;;;;;4990097;28;20475;-80
2023/08/20 08:35:12;;;;;;;5.00;1.83;;;;;;;;;;5004481;28;20464;-79
2023/08/20 08:37:40;;;;;;;4.13;1.80;;;;;;;;;;5008696;28;20452;-81
2023/08/20 08:40:11;;;;;;;4.67;2.07;;;;;;;;;;5008366;28;20503;-83
2023/08/20 08:42:39;;;;;;;6.50;2.23;;;;;;;;;;5004642;28;20562;-81
2023/08/20 08:45:11;;;;;;;7.90;3.07;;;;;;;;;;5006105;28;20927;-81
2023/08/20 08:47:40;;;;;;;5.13;2.40;;;;;;;;;;5002819;28;20921;-82
2023/08/20 08:50:10;;;;;;;5.00;1.70;;;;;;;;;;5003386;28;20468;-81
2023/08/20 08:52:42;;;;;;;6.10;2.70;;;;;;;;;;4997936;28;20476;-80
2023/08/20 08:55:12;;;;;;;9.70;4.00;;;;;;;;;;4984117;28;20455;-82
2023/08/20 08:57:44;;;;;;;6.67;2.13;;;;;;;;;;4999000;28;20475;-83
2023/08/20 09:00:14;;;;;;;11.13;5.67;;;;;;;;;;4994048;28;20465;-78
2023/08/20 09:02:42;;;;;;;6.10;3.50;;;;;;;;;;5003214;28;20666;-83
2023/08/20 09:05:11;;;;;;;5.77;2.43;;;;;;;;;;5001900;28;20492;-82
2023/08/20 09:07:43;;;;;;;7.23;2.60;;;;;;;;;;5004640;28;20456;-82
2023/08/20 09:10:11;;;;;;;5.27;1.90;;;;;;;;;;5007075;28;20460;-82
2023/08/20 09:12:39;;;;;;;6.07;2.00;;;;;;;;;;5003011;28;20864;-84
2023/08/20 09:15:11;;;;;;;7.90;2.20;;;;;;;;;;5001697;28;20524;-81
2023/08/20 09:17:39;;;;;;;6.50;1.90;;;;;;;;;;5005716;28;20487;-81
2023/08/20 09:20:11;;;;;;;3.80;1.63;;;;;;;;;;5000308;28;20484;-84
2023/08/20 09:22:52;;;;;;;6.10;2.07;;;;;;;;;;4997045;28;20445;-82
2023/08/20 09:25:21;;;;;;;6.13;2.43;;;;;;;;;;5001355;28;20484;-82
2023/08/20 09:27:48;;;;;;;3.57;1.70;;;;;;;;;;5006698;28;20441;-83
2023/08/20 09:30:22;;;;;;;6.40;2.53;;;;;;;;;;4996366;28;20476;-86
2023/08/20 09:33:04;;;;;;;6.57;1.70;;;;;;;;;;4998459;28;20455;-85
2023/08/20 09:35:35;;;;;;;5.00;2.47;;;;;;;;;;5004124;28;20499;-83
2023/08/20 09:38:06;;;;;;;4.43;1.50;;;;;;;;;;5000968;28;20491;-83
2023/08/20 09:40:34;;;;;;;4.27;2.13;;;;;;;;;;5000179;28;20468;-84
2023/08/20 09:43:08;;;;;;;6.33;2.03;;;;;;;;;;5002489;28;20484;-83
2023/08/20 09:45:41;;;;;;;6.10;2.20;;;;;;;;;;5001787;28;20582;-84
2023/08/20 09:48:10;;;;;;;6.70;1.90;;;;;;;;;;4999326;28;20543;-83
2023/08/20 09:50:38;;;;;;;7.27;2.27;;;;;;;;;;4998986;28;20446;-86
2023/08/20 09:53:08;;;;;;;5.03;2.00;;;;;;;;;;4998571;28;20448;-80
2023/08/20 09:55:37;;;;;;;5.47;2.10;;;;;;;;;;4999862;28;20444;-82
2023/08/20 09:58:06;;;;;;;7.67;2.87;;;;;;;;;;5005671;28;20469;-80
2023/08/20 10:00:34;;;;;;;7.70;2.27;;;;;;;;;;5004369;28;20464;-83
2023/08/20 10:03:02;;;;;;;6.97;1.63;;;;;;;;;;5002064;28;20474;-83
2023/08/20 10:05:30;;;;;;;6.43;2.23;;;;;;;;;;4993768;28;20824;-84
2023/08/20 10:07:58;;;;;;;5.20;2.17;;;;;;;;;;5003808;28;20456;-82
2023/08/20 10:10:27;;;;;;;8.00;2.07;;;;;;;;;;4999631;28;20463;-82
2023/08/20 10:12:56;;;;;;;7.50;2.40;;;;;;;;;;5003546;28;21007;-79
2023/08/20 10:15:26;;;;;;;4.47;2.30;;;;;;;;;;4996225;28;20473;-83
2023/08/20 10:17:54;;;;;;;7.00;2.47;;;;;;;;;;5000217;28;20918;-81
2023/08/20 10:20:24;;;;;;;6.57;2.20;;;;;;;;;;5001981;28;20912;-83
2023/08/20 10:22:52;;;;;;;8.23;2.47;;;;;;;;;;4988745;28;20760;-84
2023/08/20 10:25:24;;;;;;;7.33;2.77;;;;;;;;;;5002683;28;20490;-83
2023/08/20 10:27:54;;;;;;;6.40;2.27;;;;;;;;;;5005128;28;20750;-80
2023/08/20 10:30:25;;;;;;;5.67;2.13;;;;;;;;;;5005013;28;20472;-80
2023/08/20 10:32:54;;;;;;;7.93;2.67;;;;;;;;;;5005332;28;20467;-80
2023/08/20 10:35:30;;;;;;;8.80;2.50;;;;;;;;;;5007898;28;20528;-83
2023/08/20 10:38:08;;;;;;;8.50;3.10;;;;;;;;;;5012421;28;20463;-79
2023/08/20 10:40:55;;;;;;;7.17;2.63;;;;;;;;;;5007408;28;20942;-78
2023/08/20 10:43:31;;;;;;;4.83;2.20;;;;;;;;;;5004509;28;20907;-81
2023/08/20 10:46:09;;;;;;;7.33;2.57;;;;;;;;;;4999641;28;20594;-84
2023/08/20 10:48:38;;;;;;;6.93;3.10;;;;;;;;;;5000946;28;21003;-82
2023/08/20 10:51:13;;;;;;;9.23;2.67;;;;;;;;;;5001001;28;20452;-83
2023/08/20 10:53:48;;;;;;;4.30;1.80;;;;;;;;;;4999249;28;20451;-80
2023/08/20 10:56:16;;;;;;;7.20;2.17;;;;;;;;;;4998653;28;20448;-81
2023/08/20 10:58:46;;;;;;;6.47;2.77;;;;;;;;;;5000130;28;20491;-83
2023/08/20 11:01:15;;;;;;;4.50;1.93;;;;;;;;;;5001937;28;20460;-82
2023/08/20 11:03:48;;;;;;;8.23;3.00;;;;;;;;;;5003981;28;20444;-82
2023/08/20 11:06:16;;;;;;;5.90;2.27;;;;;;;;;;5000755;28;20554;-81
2023/08/20 11:08:44;;;;;;;6.67;3.07;;;;;;;;;;5001126;28;20467;-80
2023/08/20 11:11:12;;;;;;;6.03;2.07;;;;;;;;;;5002602;28;20456;-82
2023/08/20 11:13:42;;;;;;;4.30;2.00;;;;;;;;;;5004853;28;20790;-80
2023/08/20 11:16:12;;;;;;;7.67;2.37;;;;;;;;;;5009492;28;20460;-79
2023/08/20 11:18:40;;;;;;;4.77;2.20;;;;;;;;;;5007114;28;20499;-81
2023/08/20 11:21:09;;;;;;;9.83;2.20;;;;;;;;;;5007279;28;20475;-82
2023/08/20 11:23:39;;;;;;;4.93;2.07;;;;;;;;;;5009423;28;20476;-81
2023/08/20 11:26:07;;;;;;;6.80;2.70;;;;;;;;;;5008406;28;20568;-79
2023/08/20 11:28:35;;;;;;;6.67;2.30;;;;;;;;;;5007882;28;21009;-79
2023/08/20 11:31:03;;;;;;;4.60;1.97;;;;;;;;;;5006154;28;20452;-81
2023/08/20 11:33:32;;;;;;;5.83;2.07;;;;;;;;;;5005378;28;20456;-79
2023/08/20 11:36:00;;;;;;;5.30;1.80;;;;;;;;;;5004718;28;20441;-82
2023/08/20 11:38:30;;;;;;;4.87;1.87;;;;;;;;;;5006698;28;20456;-83
2023/08/20 11:40:59;;;;;;;4.70;1.97;;;;;;;;;;5005853;28;20502;-80
2023/08/20 11:43:27;;;;;;;4.90;2.10;;;;;;;;;;5006987;28;20467;-81
2023/08/20 11:45:54;;;;;;;4.13;2.20;;;;;;;;;;5008931;28;20536;-83
2023/08/20 11:48:22;;;;;;;6.57;2.23;;;;;;;;;;5005196;28;20445;-80
2023/08/20 11:50:52;;;;;;;5.53;2.30;;;;;;;;;;5004687;28;20452;-82
2023/08/20 11:53:23;;;;;;;8.40;2.73;;;;;;;;;;5005201;28;20462;-79
2023/08/20 11:55:51;;;;;;;6.90;2.43;;;;;;;;;;5007869;28;20748;-80
2023/08/20 11:58:21;;;;;;;4.43;2.07;;;;;;;;;;5007707;28;20527;-80
2023/08/20 12:00:51;;;;;;;6.63;2.80;;;;;;;;;;5007462;28;20456;-82
2023/08/20 12:03:34;;;;;;;4.70;1.93;;;;;;;;;;5006518;28;20486;-80
2023/08/20 12:06:15;;;;;;;4.57;1.67;;;;;;;;;;5006919;28;20483;-81
2023/08/20 12:08:43;;;;;;;5.97;2.57;;;;;;;;;;5006844;28;20477;-82
2023/08/20 12:11:11;;;;;;;6.23;2.40;;;;;;;;;;5005415;28;20459;-81
2023/08/20 12:13:39;;;;;;;5.90;2.73;;;;;;;;;;4999916;28;20599;-82
2023/08/20 12:16:07;;;;;;;4.67;2.33;;;;;;;;;;5003006;28;20531;-80
2023/08/20 12:18:35;;;;;;;5.83;2.20;;;;;;;;;;5004473;28;20504;-83
2023/08/20 12:21:04;;;;;;;7.00;2.20;;;;;;;;;;5004261;28;20472;-81
2023/08/20 12:23:32;;;;;;;6.03;2.20;;;;;;;;;;5002482;28;20892;-82
2023/08/20 12:26:00;;;;;;;5.00;2.10;;;;;;;;;;5003875;28;20506;-82
2023/08/20 12:28:27;;;;;;;5.53;2.03;;;;;;;;;;5005071;28;20519;-81
2023/08/20 12:30:55;;;;;;;6.10;2.93;;;;;;;;;;5004768;28;20464;-80
2023/08/20 12:33:23;;;;;;;6.80;2.30;;;;;;;;;;5004646;28;20531;-81
2023/08/20 12:35:51;;;;;;;6.20;2.60;;;;;;;;;;5004631;28;20444;-80
2023/08/20 12:38:25;;;;;;;6.27;2.53;;;;;;;;;;5005874;28;20484;-82
2023/08/20 12:40:53;;;;;;;5.20;2.03;;;;;;;;;;5001949;28;20875;-86
2023/08/20 12:43:21;;;;;;;6.47;2.73;;;;;;;;;;5003164;28;20460;-83
2023/08/20 12:45:49;;;;;;;7.77;2.73;;;;;;;;;;4997809;28;20488;-82
2023/08/20 12:48:19;;;;;;;7.30;2.40;;;;;;;;;;4994172;28;20612;-79
2023/08/20 12:50:46;;;;;;;5.57;2.67;;;;;;;;;;5000512;28;20716;-82
2023/08/20 12:53:15;;;;;;;4.90;1.60;;;;;;;;;;5002509;28;20467;-82
2023/08/20 12:55:44;;;;;;;3.50;1.77;;;;;;;;;;5002049;28;20557;-80
2023/08/20 12:58:12;;;;;;;9.23;2.43;;;;;;;;;;5003266;28;20444;-80
2023/08/20 13:00:40;;;;;;;4.70;1.67;;;;;;;;;;4998515;28;20787;-81
2023/08/20 13:03:09;;;;;;;8.43;3.10;;;;;;;;;;4999013;28;20448;-80
2023/08/20 13:05:37;;;;;;;4.50;1.93;;;;;;;;;;5000050;28;20484;-79
2023/08/20 13:08:05;;;;;;;4.87;2.07;;;;;;;;;;5000408;28;20453;-81
2023/08/20 13:10:33;;;;;;;5.60;2.17;;;;;;;;;;5001541;28;20464;-81
2023/08/20 13:13:03;;;;;;;5.50;2.20;;;;;;;;;;5002061;28;20456;-82
2023/08/20 13:15:31;;;;;;;5.27;2.20;;;;;;;;;;5001828;28;20693;-80
2023/08/20 13:18:00;;;;;;;7.10;2.40;;;;;;;;;;5001561;28;20462;-81
2023/08/20 13:20:28;;;;;;;5.33;2.03;;;;;;;;;;4978383;28;20487;-81
2023/08/20 13:22:56;;;;;;;7.30;2.87;;;;;;;;;;4976732;28;20457;-80
2023/08/20 13:25:24;;;;;;;6.77;3.17;;;;;;;;;;4980024;28;20928;-80
2023/08/20 13:27:51;;;;;;;3.63;2.00;;;;;;;;;;4980253;28;20559;-80
2023/08/20 13:30:21;;;;;;;4.40;2.43;;;;;;;;;;4980187;28;20721;-81
2023/08/20 13:32:48;;;;;;;4.90;2.00;;;;;;;;;;4977225;28;20472;-81
2023/08/20 13:35:16;;;;;;;5.30;2.10;;;;;;;;;;4979528;28;20904;-80
2023/08/20 13:37:44;;;;;;;3.93;2.20;;;;;;;;;;4981252;28;20457;-83
2023/08/20 13:40:13;;;;;;;5.30;1.80;;;;;;;;;;4985083;28;20516;-83
2023/08/20 13:42:41;;;;;;;4.80;1.70;;;;;;;;;;4986483;28;20464;-82
2023/08/20 13:45:09;;;;;;;6.53;2.10;;;;;;;;;;4965689;28;20506;-81
2023/08/20 13:47:39;;;;;;;4.33;1.90;;;;;;;;;;4964485;28;20481;-81
2023/08/20 13:50:11;;;;;;;6.67;2.70;;;;;;;;;;4982920;28;20468;-80
2023/08/20 13:52:39;;;;;;;4.70;2.60;;;;;;;;;;4986210;28;20445;-81
2023/08/20 13:55:07;;;;;;;4.47;1.87;;;;;;;;;;4984171;28;21048;-81
2023/08/20 13:57:35;;;;;;;9.83;1.87;;;;;;;;;;4982304;28;20500;-80
2023/08/20 14:00:11;;;;;;;4.43;1.70;;;;;;;;;;4982687;28;20445;-80
2023/08/20 14:02:43;;;;;;;6.07;1.50;;;;;;;;;;4981698;28;20468;-80
2023/08/20 14:05:12;;;;;;;6.17;2.03;;;;;;;;;;4980308;28;21138;-82
2023/08/20 14:07:41;;;;;;;5.37;2.33;;;;;;;;;;4979215;28;20520;-83
2023/08/20 14:10:10;;;;;;;4.20;2.00;;;;;;;;;;4979491;28;20468;-81
2023/08/20 14:12:37;;;;;;;4.27;1.90;;;;;;;;;;4979471;28;20450;-83
2023/08/20 14:15:06;;;;;;;3.33;1.47;;;;;;;;;;4980719;28;20823;-83
2023/08/20 14:17:33;;;;;;;4.90;2.07;;;;;;;;;;4979682;28;20744;-82
2023/08/20 14:20:06;;;;;;;8.57;2.57;;;;;;;;;;4977137;28;21018;-80
2023/08/20 14:22:34;;;;;;;3.87;1.93;;;;;;;;;;4996669;28;20739;-84
2023/08/20 14:25:03;;;;;;;7.23;2.37;;;;;;;;;;4998720;28;20471;-82
2023/08/20 14:27:31;;;;;;;5.23;2.83;;;;;;;;;;4995724;28;20512;-80
2023/08/20 14:29:59;;;;;;;6.20;1.90;;;;;;;;;;4995332;28;20511;-82
2023/08/20 14:32:26;;;;;;;6.20;2.30;;;;;;;;;;4992977;28;20456;-79
2023/08/20 14:34:54;;;;;;;6.33;2.57;;;;;;;;;;4992856;28;20456;-81
2023/08/20 14:37:24;;;;;;;5.60;2.03;;;;;;;;;;4995289;28;20872;-81
2023/08/20 14:39:51;;;;;;;7.20;2.10;;;;;;;;;;4998579;28;20436;-80
2023/08/20 14:42:19;;;;;;;4.40;1.93;;;;;;;;;;4995923;28;20448;-82
2023/08/20 14:44:47;;;;;;;6.80;2.83;;;;;;;;;;4997132;28;20564;-78
2023/08/20 14:47:15;;;;;;;5.57;2.50;;;;;;;;;;4993844;28;20488;-80
2023/08/20 14:49:43;;;;;;;5.40;2.67;;;;;;;;;;4994617;28;20460;-80